Pine Lake, Washington
Current Conditions -  °F | °C
As of 3:53 PM on Saturday 22 Nov 2014 (Local Time) from KRNT Reporting Station
Overcast Overcast  
Wind Chill: 43°   Ceiling: 2800
Heat Index: 46°   Visibility: 10mi
Dew Point: 43°   Wind: 6mph
Humidity: 89%   Direction: 110°ESE
Pressure: 29.96"   Gusts: NA
Location:  47.4953°N, 121.984°W
Report Text: KRNT 222353Z 11005KT 10SM FEW019 BKN028 OVC034 08/06 A2996 RMK AO2 SLP150 60001 T00780061 10083 20072 51034
Loading
Personal Weather Stations






























Interactive Weather Map New forecast layout! Learn more

10-Day Weather Forecast

Advertisements
Track Severe Weather on mobile